createdAt,value
2023-05-09T00:03:34.171Z,3.80
2023-05-09T00:08:36.234Z,4.30
2023-05-09T00:13:38.703Z,4.00
2023-05-09T00:18:42.327Z,3.87
2023-05-09T00:23:44.146Z,4.10
2023-05-09T00:28:45.913Z,4.33
2023-05-09T00:33:47.685Z,4.40
2023-05-09T00:38:49.473Z,3.90
2023-05-09T00:43:51.233Z,4.40
2023-05-09T00:48:53.034Z,4.27
2023-05-09T00:53:54.815Z,4.10
2023-05-09T00:58:56.673Z,3.87
2023-05-09T01:03:59.111Z,3.87
2023-05-09T01:09:19.950Z,4.40
2023-05-09T01:14:33.489Z,4.20
2023-05-09T01:19:53.867Z,4.20
2023-05-09T01:25:07.320Z,4.13
2023-05-09T01:30:11.992Z,4.63
2023-05-09T01:35:15.929Z,4.10
2023-05-09T01:40:20.858Z,4.50
2023-05-09T01:45:24.894Z,4.40
2023-05-09T01:50:29.375Z,4.30
2023-05-09T01:55:34.288Z,4.67
2023-05-09T02:00:37.134Z,4.47
2023-05-09T02:05:39.813Z,5.07
2023-05-09T02:10:42.595Z,4.73
2023-05-09T02:15:45.194Z,5.10
2023-05-09T02:20:47.066Z,4.80
2023-05-09T02:25:49.068Z,4.80
2023-05-09T02:30:52.284Z,4.57
2023-05-09T02:35:55.322Z,4.63
2023-05-09T02:40:57.073Z,4.80
2023-05-09T02:45:59.015Z,4.03
2023-05-09T02:51:00.732Z,4.30
2023-05-09T02:56:02.474Z,4.53
2023-05-09T03:01:04.423Z,4.83
2023-05-09T03:06:06.588Z,4.57
2023-05-09T03:11:08.280Z,4.60
2023-05-09T03:16:14.278Z,4.97
2023-05-09T03:21:16.019Z,4.73
2023-05-09T03:26:17.778Z,5.00
2023-05-09T03:31:19.508Z,5.10
2023-05-09T03:36:21.386Z,5.40
2023-05-09T03:41:23.030Z,5.00
2023-05-09T03:46:24.728Z,4.80
2023-05-09T03:51:26.732Z,4.97
2023-05-09T03:56:28.391Z,4.63
2023-05-09T04:01:30.856Z,4.73
2023-05-09T04:06:33.266Z,5.03
2023-05-09T04:11:34.983Z,4.90
2023-05-09T04:16:36.724Z,5.17
2023-05-09T04:21:38.430Z,5.30
2023-05-09T04:26:40.371Z,4.60
2023-05-09T04:31:42.082Z,4.90
2023-05-09T04:36:44.150Z,5.70
2023-05-09T04:41:47.774Z,4.33
2023-05-09T04:46:50.556Z,5.00
2023-05-09T04:51:52.258Z,5.10
2023-05-09T04:57:00.208Z,4.83
2023-05-09T05:02:08.290Z,5.37
2023-05-09T05:07:09.950Z,4.97
2023-05-09T05:12:11.815Z,4.90
2023-05-09T05:17:13.548Z,5.20
2023-05-09T05:22:15.335Z,4.10
2023-05-09T05:27:17.022Z,5.43
2023-05-09T05:32:18.720Z,4.87
2023-05-09T05:37:20.632Z,5.00
2023-05-09T05:42:22.434Z,5.17
2023-05-09T05:47:24.162Z,5.17
2023-05-09T05:52:27.109Z,5.37
2023-05-09T05:57:30.220Z,5.00
2023-05-09T06:02:32.169Z,5.37
2023-05-09T06:07:33.922Z,5.27
2023-05-09T06:12:36.008Z,5.13
2023-05-09T06:17:37.765Z,4.70
2023-05-09T06:22:39.654Z,4.63
2023-05-09T06:27:42.693Z,4.30
2023-05-09T06:32:44.460Z,4.60
2023-05-09T06:37:48.427Z,4.50
2023-05-09T06:42:50.602Z,4.80
2023-05-09T06:47:52.446Z,4.13
2023-05-09T06:52:54.144Z,3.83
2023-05-09T06:57:55.840Z,3.80
2023-05-09T07:02:57.529Z,3.60
2023-05-09T07:07:59.318Z,3.00
2023-05-09T07:13:01.043Z,3.10
2023-05-09T07:18:02.825Z,3.13
2023-05-09T07:23:04.687Z,3.17
2023-05-09T07:28:06.623Z,3.30
2023-05-09T07:33:08.354Z,3.37
2023-05-09T07:38:11.049Z,3.10
2023-05-09T07:43:12.796Z,3.20
2023-05-09T07:48:14.458Z,3.13
2023-05-09T07:53:16.169Z,3.30
2023-05-09T07:58:17.848Z,3.17
2023-05-09T08:03:20.770Z,2.90
2023-05-09T08:08:23.493Z,3.13
2023-05-09T08:13:25.670Z,3.67
2023-05-09T08:18:27.471Z,3.10
2023-05-09T08:23:30.354Z,2.80
2023-05-09T08:28:32.131Z,3.53
2023-05-09T08:33:33.810Z,3.40
2023-05-09T08:38:36.414Z,2.90
2023-05-09T08:43:40.377Z,3.50
2023-05-09T08:48:44.361Z,3.57
2023-05-09T08:53:46.272Z,3.77
2023-05-09T08:58:48.101Z,4.00
2023-05-09T09:03:50.272Z,4.40
2023-05-09T09:08:54.716Z,4.43
2023-05-09T09:14:00.831Z,4.90
2023-05-09T09:19:05.059Z,4.20
2023-05-09T09:24:08.074Z,4.23
2023-05-09T09:29:10.112Z,5.30
2023-05-09T09:34:14.494Z,4.53
2023-05-09T09:39:16.479Z,4.77
2023-05-09T09:44:22.972Z,4.70
2023-05-09T09:49:26.755Z,3.87
2023-05-09T09:54:29.080Z,4.20
2023-05-09T09:59:30.830Z,4.97
2023-05-09T10:04:35.224Z,3.97
2023-05-09T10:09:40.891Z,3.40
2023-05-09T10:14:43.318Z,4.47
2023-05-09T10:19:47.612Z,4.10
2023-05-09T10:24:57.806Z,3.90
2023-05-09T10:30:10.546Z,3.50
2023-05-09T10:35:14.188Z,3.40
2023-05-09T10:40:16.159Z,3.30
2023-05-09T10:45:18.130Z,3.57
2023-05-09T10:50:21.465Z,3.30
2023-05-09T10:55:24.419Z,3.00
2023-05-09T11:00:26.148Z,3.10
2023-05-09T11:05:39.294Z,2.60
2023-05-09T11:10:43.990Z,2.77
2023-05-09T11:16:04.454Z,2.60
2023-05-09T11:21:09.545Z,2.20
2023-05-09T11:26:11.238Z,2.37
2023-05-09T11:31:17.645Z,2.60
2023-05-09T11:36:31.894Z,2.60
2023-05-09T11:41:42.302Z,2.37
2023-05-09T11:46:45.211Z,2.33
2023-05-09T11:51:46.905Z,2.70
2023-05-09T11:56:48.577Z,2.87
2023-05-09T12:01:50.304Z,2.20
2023-05-09T12:06:52.393Z,2.10
2023-05-09T12:11:54.122Z,2.17
2023-05-09T12:16:55.915Z,2.10
2023-05-09T12:22:02.420Z,2.00
2023-05-09T12:27:05.190Z,2.10
2023-05-09T12:32:06.905Z,2.27
2023-05-09T12:37:16.781Z,2.20
2023-05-09T12:42:18.504Z,2.00
2023-05-09T12:47:20.649Z,2.17
2023-05-09T12:52:22.845Z,2.07
2023-05-09T12:57:29.379Z,2.10
2023-05-09T13:02:37.448Z,2.00
2023-05-09T13:07:47.349Z,2.10
2023-05-09T13:12:49.926Z,2.07
2023-05-09T13:17:52.369Z,2.40
2023-05-09T13:22:54.193Z,2.10
2023-05-09T13:27:55.912Z,2.40
2023-05-09T13:33:00.375Z,2.23
2023-05-09T13:38:05.827Z,2.20
2023-05-09T13:43:07.571Z,2.47
2023-05-09T13:48:09.449Z,2.27
2023-05-09T13:53:11.153Z,2.43
2023-05-09T13:58:12.923Z,2.20
2023-05-09T14:03:14.627Z,2.30
2023-05-09T14:08:16.901Z,3.27
2023-05-09T14:13:18.679Z,2.27
2023-05-09T14:18:21.223Z,2.17
2023-05-09T14:23:23.209Z,2.47
2023-05-09T14:28:24.860Z,2.40
2023-05-09T14:33:27.888Z,6.20
2023-05-09T14:38:29.734Z,3.90
2023-05-09T14:43:31.652Z,4.00
2023-05-09T14:48:36.296Z,3.77
2023-05-09T14:53:41.800Z,4.13
2023-05-09T14:58:43.685Z,4.70
2023-05-09T15:03:45.391Z,5.80
2023-05-09T15:08:47.063Z,5.47
2023-05-09T15:13:48.941Z,5.50
2023-05-09T15:18:50.606Z,5.70
2023-05-09T15:23:52.254Z,5.10
2023-05-09T15:28:53.931Z,4.70
2023-05-09T15:33:55.755Z,3.77
2023-05-09T15:38:57.570Z,4.17
2023-05-09T15:43:59.450Z,3.23
2023-05-09T15:49:01.197Z,4.53
2023-05-09T15:54:02.997Z,3.23
2023-05-09T15:59:04.689Z,3.50
2023-05-09T16:04:06.439Z,2.77
2023-05-09T16:09:08.264Z,3.77
2023-05-09T16:14:11.695Z,4.23
2023-05-09T16:19:13.983Z,3.60
2023-05-09T16:24:15.690Z,3.50
2023-05-09T16:29:17.345Z,3.27
2023-05-09T16:34:19.011Z,4.00
2023-05-09T16:39:20.874Z,4.30
2023-05-09T16:44:22.557Z,4.37
2023-05-09T16:49:24.319Z,3.57
2023-05-09T16:54:26.041Z,3.30
2023-05-09T16:59:27.804Z,4.63
2023-05-09T17:04:29.540Z,4.40
2023-05-09T17:09:31.999Z,4.17
2023-05-09T17:14:33.694Z,3.50
2023-05-09T17:19:35.388Z,3.80
2023-05-09T17:24:37.145Z,4.10
2023-05-09T17:29:38.848Z,4.30
2023-05-09T17:34:40.623Z,4.77
2023-05-09T17:39:42.610Z,4.00
2023-05-09T17:44:44.647Z,3.50
2023-05-09T17:49:46.402Z,3.20
2023-05-09T17:54:48.133Z,3.73
2023-05-09T17:59:51.721Z,3.20
2023-05-09T18:04:53.888Z,2.70
2023-05-09T18:09:55.663Z,2.50
2023-05-09T18:14:57.392Z,2.80
2023-05-09T18:19:59.106Z,3.20
2023-05-09T18:25:01.156Z,2.80
2023-05-09T18:30:03.058Z,3.40
2023-05-09T18:35:05.420Z,3.13
2023-05-09T18:40:10.633Z,3.07
2023-05-09T18:45:13.058Z,3.40
2023-05-09T18:50:15.042Z,3.17
2023-05-09T18:55:19.657Z,3.17
2023-05-09T19:00:21.355Z,3.03
2023-05-09T19:05:23.012Z,2.73
2023-05-09T19:10:24.754Z,2.53
2023-05-09T19:15:26.471Z,2.60
2023-05-09T19:20:29.757Z,2.20
2023-05-09T19:25:33.799Z,2.50
2023-05-09T19:30:35.902Z,2.20
2023-05-09T19:35:40.745Z,2.03
2023-05-09T19:40:42.487Z,1.90
2023-05-09T19:45:44.209Z,1.80
2023-05-09T19:50:46.134Z,1.97
2023-05-09T19:55:47.908Z,1.90
2023-05-09T20:00:49.612Z,1.80
2023-05-09T20:05:51.295Z,1.90
2023-05-09T20:10:53.843Z,2.13
2023-05-09T20:15:55.601Z,1.60
2023-05-09T20:20:57.271Z,1.57
2023-05-09T20:25:59.115Z,1.60
2023-05-09T20:31:00.873Z,1.80
2023-05-09T20:36:02.538Z,1.90
2023-05-09T20:41:04.192Z,2.00
2023-05-09T20:46:06.451Z,2.00
2023-05-09T20:51:08.157Z,2.00
2023-05-09T20:56:09.855Z,1.90
2023-05-09T21:01:11.594Z,2.00
2023-05-09T21:06:13.486Z,2.07
2023-05-09T21:11:15.267Z,1.90
2023-05-09T21:16:16.996Z,1.90
2023-05-09T21:21:18.725Z,1.93
2023-05-09T21:26:22.779Z,1.90
2023-05-09T21:31:24.503Z,1.73
2023-05-09T21:36:26.342Z,2.03
2023-05-09T21:41:28.143Z,2.20
2023-05-09T21:46:32.888Z,2.07
2023-05-09T21:51:35.145Z,2.17
2023-05-09T21:56:36.941Z,2.20
2023-05-09T22:01:38.795Z,1.80
2023-05-09T22:06:42.462Z,1.90
2023-05-09T22:11:44.338Z,2.07
2023-05-09T22:16:46.174Z,1.90
2023-05-09T22:21:48.957Z,1.90
2023-05-09T22:26:50.844Z,1.90
2023-05-09T22:31:52.617Z,2.00
2023-05-09T22:36:55.015Z,2.30
2023-05-09T22:41:56.775Z,2.07
2023-05-09T22:46:59.081Z,2.00
2023-05-09T22:52:00.930Z,2.10
2023-05-09T22:57:02.603Z,2.20
2023-05-09T23:02:04.869Z,2.40
2023-05-09T23:07:07.442Z,2.20
2023-05-09T23:12:10.532Z,2.20
2023-05-09T23:17:12.366Z,2.20
2023-05-09T23:22:14.033Z,2.27
2023-05-09T23:27:15.743Z,2.20
2023-05-09T23:32:17.429Z,2.20
2023-05-09T23:37:19.193Z,2.00
2023-05-09T23:42:20.894Z,2.10
2023-05-09T23:47:22.575Z,2.43
2023-05-09T23:52:24.334Z,2.30
2023-05-09T23:57:26.402Z,2.10
